Terminal Aerodrome Forecast
Issued by NWS

Home | Current Version | Previous Version | Text Only | Print | Product List | Glossary On
Versions: 1 2 3 4 5 6 7 8 9 10 11 12 13
000
FTUS44 KCRP 282300
TAFALI
TAF
KALI 282337Z 2900/2924 17008KT P6SM SKC
     FM290800 18005KT P6SM FEW012 WS020/18035KT
     FM291500 18013G17KT P6SM SCT025
      TEMPO 2915/2917 BKN025
     FM292000 16017G22KT P6SM SCT035=

USA.gov is the U.S. government's official web portal to all federal, state and local government web resources and services.